sensor_id;sensor_type;location;lat;lon;timestamp;pressure;altitude;pressure_sealevel;temperature;humidity
3464;BME280;3551;41.578;24.706;2023-03-04T04:25:54;91099.56;;;4.17;100.00
3464;BME280;3551;41.578;24.706;2023-03-04T04:29:28;91112.91;;;4.24;100.00
3464;BME280;3551;41.578;24.706;2023-03-04T04:32:44;91120.72;;;4.40;100.00
3464;BME280;3551;41.578;24.706;2023-03-04T04:35:48;91114.13;;;4.30;100.00
3464;BME280;3551;41.578;24.706;2023-03-04T04:38:54;91108.84;;;4.30;100.00
3464;BME280;3551;41.578;24.706;2023-03-04T06:28:15;91113.84;;;4.88;100.00
3464;BME280;3551;41.578;24.706;2023-03-04T06:31:33;91116.47;;;4.84;100.00
3464;BME280;3551;41.578;24.706;2023-03-04T06:34:38;91114.44;;;4.74;100.00
3464;BME280;3551;41.578;24.706;2023-03-04T06:37:58;91109.78;;;4.94;100.00
3464;BME280;3551;41.578;24.706;2023-03-04T06:47:27;91121.66;;;5.03;100.00
3464;BME280;3551;41.578;24.706;2023-03-04T06:50:18;91110.88;;;5.19;100.00
3464;BME280;3551;41.578;24.706;2023-03-04T06:59:57;91122.22;;;5.49;100.00
3464;BME280;3551;41.578;24.706;2023-03-04T07:51:14;91121.84;;;6.61;100.00
3464;BME280;3551;41.578;24.706;2023-03-04T07:54:04;91121.88;;;6.65;100.00
3464;BME280;3551;41.578;24.706;2023-03-04T07:57:06;91134.75;;;6.63;100.00
3464;BME280;3551;41.578;24.706;2023-03-04T08:00:05;91133.66;;;6.67;100.00
3464;BME280;3551;41.578;24.706;2023-03-04T08:02:42;91128.38;;;6.71;100.00
3464;BME280;3551;41.578;24.706;2023-03-04T08:05:11;91123.75;;;6.61;100.00
3464;BME280;3551;41.578;24.706;2023-03-04T08:11:38;91130.97;;;6.64;100.00
3464;BME280;3551;41.578;24.706;2023-03-04T08:14:20;91134.88;;;6.80;100.00
3464;BME280;3551;41.578;24.706;2023-03-04T08:16:52;91128.72;;;6.66;100.00
3464;BME280;3551;41.578;24.706;2023-03-04T08:19:25;91128.38;;;6.74;100.00
3464;BME280;3551;41.578;24.706;2023-03-04T08:21:57;91124.22;;;6.73;100.00
3464;BME280;3551;41.578;24.706;2023-03-04T08:24:44;91121.94;;;6.75;100.00
3464;BME280;3551;41.578;24.706;2023-03-04T08:30:21;91119.03;;;6.91;100.00
3464;BME280;3551;41.578;24.706;2023-03-04T08:33:02;91114.78;;;6.83;100.00
3464;BME280;3551;41.578;24.706;2023-03-04T08:35:47;91111.06;;;6.91;100.00
3464;BME280;3551;41.578;24.706;2023-03-04T08:38:18;91108.44;;;6.98;100.00
3464;BME280;3551;41.578;24.706;2023-03-04T08:40:55;91109.13;;;6.85;100.00
3464;BME280;3551;41.578;24.706;2023-03-04T08:43:25;91104.09;;;6.72;100.00
3464;BME280;3551;41.578;24.706;2023-03-04T08:58:14;91108.03;;;6.93;100.00
3464;BME280;3551;41.578;24.706;2023-03-04T09:01:01;91099.31;;;6.96;100.00
3464;BME280;3551;41.578;24.706;2023-03-04T09:04:07;91096.72;;;7.10;100.00
3464;BME280;3551;41.578;24.706;2023-03-04T09:06:44;91104.69;;;7.03;100.00
3464;BME280;3551;41.578;24.706;2023-03-04T09:09:13;91093.63;;;6.97;100.00
3464;BME280;3551;41.578;24.706;2023-03-04T09:11:51;91093.31;;;7.06;100.00
3464;BME280;3551;41.578;24.706;2023-03-04T09:14:55;91091.03;;;7.08;100.00
3464;BME280;3551;41.578;24.706;2023-03-04T09:17:25;91087.31;;;7.23;100.00
3464;BME280;3551;41.578;24.706;2023-03-04T09:19:58;91087.31;;;7.23;100.00
3464;BME280;3551;41.578;24.706;2023-03-04T09:22:43;91090.34;;;7.25;100.00
3464;BME280;3551;41.578;24.706;2023-03-04T09:25:44;91087.72;;;7.28;100.00
3464;BME280;3551;41.578;24.706;2023-03-04T09:28:53;91088.50;;;7.32;100.00
3464;BME280;3551;41.578;24.706;2023-03-04T09:31:37;91080.13;;;7.30;100.00
3464;BME280;3551;41.578;24.706;2023-03-04T09:34:19;91083.19;;;7.32;100.00
3464;BME280;3551;41.578;24.706;2023-03-04T09:40:15;91084.00;;;7.44;100.00
3464;BME280;3551;41.578;24.706;2023-03-04T09:42:56;91087.06;;;7.56;100.00
3464;BME280;3551;41.578;24.706;2023-03-04T09:45:50;91078.72;;;7.58;100.00
3464;BME280;3551;41.578;24.706;2023-03-04T09:48:42;91077.59;;;7.62;100.00
3464;BME280;3551;41.578;24.706;2023-03-04T09:51:38;91076.41;;;7.56;100.00
3464;BME280;3551;41.578;24.706;2023-03-04T09:54:17;91079.13;;;7.63;100.00
3464;BME280;3551;41.578;24.706;2023-03-04T10:00:23;91062.00;;;7.61;100.00
3464;BME280;3551;41.578;24.706;2023-03-04T10:03:04;91072.31;;;7.69;100.00
3464;BME280;3551;41.578;24.706;2023-03-04T10:11:56;91047.88;;;7.43;100.00
3464;BME280;3551;41.578;24.706;2023-03-04T10:14:53;91051.38;;;7.61;100.00
3464;BME280;3551;41.578;24.706;2023-03-04T10:17:50;91046.81;;;7.72;100.00
3464;BME280;3551;41.578;24.706;2023-03-04T10:20:32;91054.81;;;7.68;100.00
3464;BME280;3551;41.578;24.706;2023-03-04T10:23:09;91053.22;;;7.50;100.00
3464;BME280;3551;41.578;24.706;2023-03-04T10:25:50;91045.28;;;7.60;100.00
3464;BME280;3551;41.578;24.706;2023-03-04T10:28:42;91045.66;;;7.66;100.00
3464;BME280;3551;41.578;24.706;2023-03-04T10:31:31;91041.84;;;7.60;100.00
3464;BME280;3551;41.578;24.706;2023-03-04T10:34:16;91029.72;;;7.73;100.00
3464;BME280;3551;41.578;24.706;2023-03-04T10:37:09;91032.72;;;7.57;100.00
3464;BME280;3551;41.578;24.706;2023-03-04T10:39:48;91029.78;;;7.90;100.00
3464;BME280;3551;41.578;24.706;2023-03-04T10:42:36;91019.13;;;8.05;100.00
3464;BME280;3551;41.578;24.706;2023-03-04T10:45:26;91016.41;;;7.80;100.00
3464;BME280;3551;41.578;24.706;2023-03-04T10:48:34;91011.50;;;7.92;100.00
3464;BME280;3551;41.578;24.706;2023-03-04T10:51:26;91011.09;;;7.73;100.00
3464;BME280;3551;41.578;24.706;2023-03-04T10:54:28;91014.94;;;7.93;100.00
3464;BME280;3551;41.578;24.706;2023-03-04T10:57:22;91002.34;;;7.72;100.00
3464;BME280;3551;41.578;24.706;2023-03-04T11:00:19;91003.84;;;7.63;100.00
3464;BME280;3551;41.578;24.706;2023-03-04T11:12:30;90984.84;;;7.61;100.00
3464;BME280;3551;41.578;24.706;2023-03-04T11:15:16;90980.69;;;7.77;100.00
3464;BME280;3551;41.578;24.706;2023-03-04T11:17:58;90971.19;;;7.98;100.00
3464;BME280;3551;41.578;24.706;2023-03-04T11:20:33;90967.03;;;8.14;100.00
3464;BME280;3551;41.578;24.706;2023-03-04T11:23:40;90977.28;;;8.05;100.00
3464;BME280;3551;41.578;24.706;2023-03-04T11:26:41;90960.91;;;8.03;100.00
3464;BME280;3551;41.578;24.706;2023-03-04T11:29:21;90964.34;;;7.97;100.00
3464;BME280;3551;41.578;24.706;2023-03-04T11:32:10;90957.88;;;7.80;100.00
3464;BME280;3551;41.578;24.706;2023-03-04T11:35:20;90952.50;;;7.38;100.00
3464;BME280;3551;41.578;24.706;2023-03-04T11:38:14;90952.81;;;7.15;100.00
3464;BME280;3551;41.578;24.706;2023-03-04T11:41:01;90953.66;;;7.47;100.00
3464;BME280;3551;41.578;24.706;2023-03-04T11:43:36;90954.44;;;7.86;100.00
3464;BME280;3551;41.578;24.706;2023-03-04T11:58:49;90930.50;;;7.93;100.00
3464;BME280;3551;41.578;24.706;2023-03-04T12:01:36;90932.03;;;8.02;100.00
3464;BME280;3551;41.578;24.706;2023-03-04T12:07:51;90917.91;;;8.43;100.00
3464;BME280;3551;41.578;24.706;2023-03-04T12:11:01;90930.41;;;8.75;100.00
3464;BME280;3551;41.578;24.706;2023-03-04T12:14:01;90926.25;;;8.67;100.00
3464;BME280;3551;41.578;24.706;2023-03-04T12:20:09;90924.81;;;7.88;100.00
3464;BME280;3551;41.578;24.706;2023-03-04T12:22:48;90929.72;;;8.18;100.00
3464;BME280;3551;41.578;24.706;2023-03-04T12:25:35;90916.75;;;8.52;100.00
3464;BME280;3551;41.578;24.706;2023-03-04T12:28:51;90922.84;;;8.48;100.00
3464;BME280;3551;41.578;24.706;2023-03-04T12:56:55;90889.34;;;8.55;100.00
3464;BME280;3551;41.578;24.706;2023-03-04T12:59:39;90890.84;;;8.56;100.00
3464;BME280;3551;41.578;24.706;2023-03-04T13:15:25;90881.72;;;8.60;100.00
3464;BME280;3551;41.578;24.706;2023-03-04T13:18:31;90882.06;;;8.66;100.00
3464;BME280;3551;41.578;24.706;2023-03-04T13:21:32;90871.88;;;8.32;100.00
3464;BME280;3551;41.578;24.706;2023-03-04T13:56:17;90851.28;;;8.54;100.00
3464;BME280;3551;41.578;24.706;2023-03-04T13:58:46;90839.78;;;8.64;100.00
3464;BME280;3551;41.578;24.706;2023-03-04T14:01:21;90844.00;;;8.58;100.00
3464;BME280;3551;41.578;24.706;2023-03-04T14:03:49;90838.22;;;8.81;100.00
3464;BME280;3551;41.578;24.706;2023-03-04T14:06:16;90839.34;;;8.83;100.00
3464;BME280;3551;41.578;24.706;2023-03-04T14:08:43;90839.00;;;8.74;100.00
3464;BME280;3551;41.578;24.706;2023-03-04T14:11:15;90831.09;;;8.49;100.00
3464;BME280;3551;41.578;24.706;2023-03-04T14:13:44;90831.91;;;8.39;100.00
3464;BME280;3551;41.578;24.706;2023-03-04T14:16:11;90833.03;;;8.49;100.00
3464;BME280;3551;41.578;24.706;2023-03-04T14:18:38;90830.38;;;8.45;100.00
3464;BME280;3551;41.578;24.706;2023-03-04T14:21:05;90829.28;;;8.29;100.00
3464;BME280;3551;41.578;24.706;2023-03-04T14:23:32;90821.66;;;8.20;100.00
3464;BME280;3551;41.578;24.706;2023-03-04T14:26:08;90818.25;;;8.16;100.00
3464;BME280;3551;41.578;24.706;2023-03-04T14:28:42;90814.03;;;8.26;100.00
3464;BME280;3551;41.578;24.706;2023-03-04T14:37:47;90806.06;;;8.22;100.00
3464;BME280;3551;41.578;24.706;2023-03-04T14:40:51;90807.28;;;7.82;100.00
3464;BME280;3551;41.578;24.706;2023-03-04T14:43:25;90797.34;;;8.04;100.00
3464;BME280;3551;41.578;24.706;2023-03-04T15:22:03;90779.13;;;7.88;100.00
3464;BME280;3551;41.578;24.706;2023-03-04T15:24:59;90773.03;;;7.91;100.00
3464;BME280;3551;41.578;24.706;2023-03-04T15:27:44;90773.44;;;7.90;100.00
3464;BME280;3551;41.578;24.706;2023-03-04T15:30:16;90769.59;;;7.98;100.00
3464;BME280;3551;41.578;24.706;2023-03-04T15:32:57;90777.22;;;7.96;100.00
3464;BME280;3551;41.578;24.706;2023-03-04T15:35:33;90773.03;;;8.02;100.00
3464;BME280;3551;41.578;24.706;2023-03-04T15:41:12;90770.78;;;7.90;100.00
3464;BME280;3551;41.578;24.706;2023-03-04T15:43:56;90765.81;;;7.99;100.00
3464;BME280;3551;41.578;24.706;2023-03-04T15:47:05;90768.13;;;7.83;100.00
3464;BME280;3551;41.578;24.706;2023-03-04T15:49:42;90774.63;;;7.50;100.00
3464;BME280;3551;41.578;24.706;2023-03-04T15:52:42;90777.69;;;7.49;100.00
3464;BME280;3551;41.578;24.706;2023-03-04T15:59:17;90782.97;;;7.70;100.00
3464;BME280;3551;41.578;24.706;2023-03-04T16:02:22;90777.66;;;7.66;100.00
3464;BME280;3551;41.578;24.706;2023-03-04T16:05:17;90786.41;;;7.60;100.00
3464;BME280;3551;41.578;24.706;2023-03-04T16:08:01;90782.63;;;7.61;100.00
3464;BME280;3551;41.578;24.706;2023-03-04T16:10:47;90789.44;;;7.72;100.00
3464;BME280;3551;41.578;24.706;2023-03-04T16:13:32;90792.09;;;7.65;100.00
3464;BME280;3551;41.578;24.706;2023-03-04T16:17:02;90786.41;;;7.63;100.00
3464;BME280;3551;41.578;24.706;2023-03-04T16:29:03;90798.94;;;7.70;100.00
3464;BME280;3551;41.578;24.706;2023-03-04T16:31:51;90795.53;;;7.66;100.00
3464;BME280;3551;41.578;24.706;2023-03-04T16:35:08;90805.78;;;7.74;100.00
3464;BME280;3551;41.578;24.706;2023-03-04T16:37:51;90798.94;;;7.73;100.00
3464;BME280;3551;41.578;24.706;2023-03-04T16:40:53;90799.72;;;7.63;100.00
3464;BME280;3551;41.578;24.706;2023-03-04T16:43:29;90793.25;;;7.64;100.00
3464;BME280;3551;41.578;24.706;2023-03-04T16:46:14;90798.94;;;7.66;100.00
3464;BME280;3551;41.578;24.706;2023-03-04T16:49:24;90795.91;;;7.64;100.00
3464;BME280;3551;41.578;24.706;2023-03-04T16:52:24;90795.16;;;7.57;100.00
3464;BME280;3551;41.578;24.706;2023-03-04T16:55:08;90794.75;;;7.62;100.00
3464;BME280;3551;41.578;24.706;2023-03-04T16:57:55;90800.88;;;7.55;100.00
3464;BME280;3551;41.578;24.706;2023-03-04T17:01:00;90805.44;;;7.55;100.00
3464;BME280;3551;41.578;24.706;2023-03-04T17:04:10;90813.03;;;7.53;100.00
3464;BME280;3551;41.578;24.706;2023-03-04T17:07:13;90810.38;;;7.53;100.00
3464;BME280;3551;41.578;24.706;2023-03-04T17:09:56;90810.75;;;7.51;100.00
3464;BME280;3551;41.578;24.706;2023-03-04T17:12:56;90815.31;;;7.40;100.00
3464;BME280;3551;41.578;24.706;2023-03-04T17:15:37;90820.63;;;7.22;100.00
3464;BME280;3551;41.578;24.706;2023-03-04T17:18:28;90820.25;;;7.17;100.00
3464;BME280;3551;41.578;24.706;2023-03-04T17:24:04;90822.13;;;7.13;100.00
3464;BME280;3551;41.578;24.706;2023-03-04T17:27:07;90828.59;;;7.12;100.00
3464;BME280;3551;41.578;24.706;2023-03-04T17:30:14;90817.53;;;6.92;100.00
3464;BME280;3551;41.578;24.706;2023-03-04T17:32:51;90820.97;;;6.86;100.00
3464;BME280;3551;41.578;24.706;2023-03-04T17:35:38;90837.31;;;7.02;100.00
3464;BME280;3551;41.578;24.706;2023-03-04T17:38:41;90824.00;;;6.95;100.00
3464;BME280;3551;41.578;24.706;2023-03-04T17:41:30;90828.94;;;6.86;100.00
3464;BME280;3551;41.578;24.706;2023-03-04T17:44:37;90833.84;;;6.87;100.00
3464;BME280;3551;41.578;24.706;2023-03-04T17:47:19;90834.59;;;6.73;100.00
3464;BME280;3551;41.578;24.706;2023-03-04T17:50:10;90829.34;;;5.98;100.00
3464;BME280;3551;41.578;24.706;2023-03-04T17:52:40;90833.59;;;6.09;100.00
3464;BME280;3551;41.578;24.706;2023-03-04T17:55:21;90821.84;;;6.14;100.00
3464;BME280;3551;41.578;24.706;2023-03-04T22:46:44;90743.50;;;3.53;100.00
3464;BME280;3551;41.578;24.706;2023-03-04T22:53:10;90730.97;;;3.80;100.00
3464;BME280;3551;41.578;24.706;2023-03-04T22:59:23;90740.38;;;3.77;100.00
3464;BME280;3551;41.578;24.706;2023-03-04T23:18:37;90741.38;;;3.66;100.00
3464;BME280;3551;41.578;24.706;2023-03-04T23:31:21;90722.81;;;3.62;100.00
3464;BME280;3551;41.578;24.706;2023-03-04T23:40:49;90714.53;;;3.34;100.00
3464;BME280;3551;41.578;24.706;2023-03-04T23:47:37;90713.78;;;3.63;100.00
3464;BME280;3551;41.578;24.706;2023-03-04T23:50:57;90707.09;;;3.43;100.00
3464;BME280;3551;41.578;24.706;2023-03-04T23:53:51;90705.00;;;3.56;100.00
